Time;durP1;ratioP1;P1;durP2;ratioP2;P2;SDS_P1;SDS_P2;PMS_P1;PMS_P2;Temp;Humidity;BMP_temperature;BMP_pressure;BME280_temperature;BME280_humidity;BME280_pressure;Samples;Min_cycle;Max_cycle;Signal;HPM_P1;HPM_P2
2023/02/08 03:08:32;;;;;;;16.70;10.93;;;;;;;;;;4684592;26;20429;-93
2023/02/08 03:11:40;;;;;;;;;;;;;;;;;;;;;
2023/02/08 03:14:08;;;;;;;;;;;;;;;;;;;;;
2023/02/08 03:31:41;;;;;;;12.88;11.48;;;;;;;;;;3472650;22;20434;-92
2023/02/08 03:33:58;;;;;;;;;;;;;;;;;;;;;
2023/02/08 03:36:33;;;;;;;12.38;11.07;;;;;;;;;;5062092;28;20562;-92
2023/02/08 03:39:18;;;;;;;;;;;;;;;;;;;;;
2023/02/08 03:57:30;;;;;;;12.35;11.15;;;;;;;;;;4868438;29;20502;-91
2023/02/08 04:00:20;;;;;;;14.20;11.53;;;;;;;;;;4940328;29;20406;-92
2023/02/08 04:03:09;;;;;;;12.57;11.27;;;;;;;;;;5017253;28;20389;-93
2023/02/08 04:05:36;;;;;;;12.65;11.15;;;;;;;;;;5042353;28;20769;-92
2023/02/08 04:08:02;;;;;;;13.20;11.60;;;;;;;;;;5043036;28;20392;-92
2023/02/08 04:10:59;;;;;;;;;;;;;;;;;;;;;
2023/02/08 04:13:36;;;;;;;;;;;;;;;;;;;;;
2023/02/08 04:16:43;;;;;;;13.05;11.65;;;;;;;;;;5060233;28;20461;-91
2023/02/08 04:19:18;;;;;;;12.32;11.07;;;;;;;;;;5067288;28;20890;-92
2023/02/08 04:22:18;;;;;;;13.27;11.88;;;;;;;;;;5030914;28;20374;-93
2023/02/08 04:25:17;;;;;;;;;;;;;;;;;;;;;
2023/02/08 04:30:41;;;;;;;12.00;10.90;;;;;;;;;;5003063;28;20487;-92
2023/02/08 04:33:07;;;;;;;13.20;11.40;;;;;;;;;;5006089;28;20533;-91
2023/02/08 04:35:36;;;;;;;12.87;11.50;;;;;;;;;;4990855;28;20476;-93
2023/02/08 04:38:22;;;;;;;12.88;11.43;;;;;;;;;;5022257;28;20385;-93
2023/02/08 04:40:54;;;;;;;13.25;11.48;;;;;;;;;;5000427;28;20414;-93
2023/02/08 04:43:30;;;;;;;;;;;;;;;;;;;;;
2023/02/08 04:46:18;;;;;;;12.20;11.00;;;;;;;;;;5047584;28;20410;-92
2023/02/08 04:48:43;;;;;;;12.52;11.23;;;;;;;;;;5062096;28;20394;-91
2023/02/08 04:51:27;;;;;;;14.48;12.27;;;;;;;;;;5041798;28;20496;-91
2023/02/08 04:53:58;;;;;;;12.60;11.30;;;;;;;;;;5033881;28;20402;-94
2023/02/08 04:56:24;;;;;;;13.07;11.57;;;;;;;;;;5051846;28;20402;-92
2023/02/08 04:58:50;;;;;;;12.70;11.40;;;;;;;;;;5039658;28;20388;-96
2023/02/08 05:01:16;;;;;;;13.05;11.73;;;;;;;;;;5039153;28;20408;-92
2023/02/08 05:03:42;;;;;;;13.43;11.93;;;;;;;;;;5035578;28;20778;-93
2023/02/08 05:06:08;;;;;;;15.57;12.47;;;;;;;;;;5036222;28;20391;-92
2023/02/08 05:08:35;;;;;;;15.05;12.88;;;;;;;;;;5049285;28;20382;-92
2023/02/08 05:11:01;;;;;;;14.40;12.90;;;;;;;;;;5034207;28;20417;-91
2023/02/08 05:13:30;;;;;;;13.23;11.93;;;;;;;;;;5059765;28;20382;-92
2023/02/08 05:15:56;;;;;;;16.50;12.05;;;;;;;;;;5039339;28;20386;-91
2023/02/08 05:18:22;;;;;;;13.05;11.68;;;;;;;;;;5039445;28;20891;-93
2023/02/08 05:21:15;;;;;;;13.73;12.30;;;;;;;;;;5057700;28;20388;-94
2023/02/08 05:23:41;;;;;;;14.35;11.85;;;;;;;;;;5011854;28;20859;-94
2023/02/08 05:26:16;;;;;;;15.77;12.05;;;;;;;;;;5038151;28;20381;-93
2023/02/08 05:28:42;;;;;;;13.80;12.00;;;;;;;;;;5035613;28;20394;-93
2023/02/08 05:31:12;;;;;;;13.23;11.85;;;;;;;;;;5029943;28;20419;-92
2023/02/08 05:33:38;;;;;;;14.82;12.10;;;;;;;;;;5026409;28;20392;-93
2023/02/08 05:36:04;;;;;;;14.90;12.27;;;;;;;;;;5026206;28;20383;-93
2023/02/08 05:38:33;;;;;;;12.80;11.43;;;;;;;;;;5019237;28;20396;-93
2023/02/08 05:41:18;;;;;;;14.85;12.45;;;;;;;;;;5014447;28;20448;-94
2023/02/08 05:43:44;;;;;;;15.35;12.55;;;;;;;;;;5008390;28;21201;-92
2023/02/08 05:46:11;;;;;;;13.65;11.68;;;;;;;;;;5032473;28;20479;-93
2023/02/08 05:48:37;;;;;;;14.25;12.75;;;;;;;;;;5028781;28;20394;-91
2023/02/08 05:57:41;;;;;;;;;;;;;;;;;;;;;
2023/02/08 06:00:07;;;;;;;14.20;12.13;;;;;;;;;;4917921;29;20409;-87
2023/02/08 06:02:36;;;;;;;13.15;11.40;;;;;;;;;;4931627;29;20401;-87
2023/02/08 06:05:02;;;;;;;15.05;12.27;;;;;;;;;;4903060;29;20410;-85
2023/02/08 06:07:28;;;;;;;14.63;11.90;;;;;;;;;;4917189;29;20499;-83
2023/02/08 06:09:54;;;;;;;13.75;11.88;;;;;;;;;;4907021;29;20416;-84
2023/02/08 06:12:20;;;;;;;13.20;11.75;;;;;;;;;;4951389;28;20987;-84
2023/02/08 06:14:46;;;;;;;13.75;12.30;;;;;;;;;;4955929;29;20393;-85
2023/02/08 06:17:12;;;;;;;13.23;11.83;;;;;;;;;;4939333;29;20931;-82
2023/02/08 06:19:38;;;;;;;14.48;12.10;;;;;;;;;;4955163;28;20502;-83
2023/02/08 06:22:04;;;;;;;13.40;11.47;;;;;;;;;;4947490;28;20401;-84
2023/02/08 06:24:30;;;;;;;13.48;11.82;;;;;;;;;;4952754;28;20481;-86
2023/02/08 06:26:56;;;;;;;16.08;12.35;;;;;;;;;;4967122;28;20406;-86
2023/02/08 06:29:22;;;;;;;14.90;12.18;;;;;;;;;;4955608;29;20409;-85
2023/02/08 06:31:48;;;;;;;13.77;12.32;;;;;;;;;;4951628;29;20417;-85
2023/02/08 06:34:14;;;;;;;13.02;11.60;;;;;;;;;;4955311;29;20390;-84
2023/02/08 06:36:40;;;;;;;16.25;12.52;;;;;;;;;;4988224;28;20894;-83
2023/02/08 06:39:06;;;;;;;14.88;13.20;;;;;;;;;;5034292;28;20383;-85
2023/02/08 06:41:33;;;;;;;16.75;13.00;;;;;;;;;;5035193;28;20448;-85
2023/02/08 06:44:00;;;;;;;15.50;12.90;;;;;;;;;;5017101;28;20383;-84
2023/02/08 06:46:26;;;;;;;15.45;13.05;;;;;;;;;;5034951;28;20398;-83
2023/02/08 06:48:52;;;;;;;16.35;13.43;;;;;;;;;;5032897;28;20896;-85
2023/02/08 06:51:18;;;;;;;17.47;14.27;;;;;;;;;;5036016;28;20430;-85
2023/02/08 06:53:44;;;;;;;15.15;12.80;;;;;;;;;;5017167;28;20384;-85
2023/02/08 06:56:10;;;;;;;15.27;13.40;;;;;;;;;;5033654;28;20864;-85
2023/02/08 06:58:36;;;;;;;16.00;12.95;;;;;;;;;;5033962;28;20518;-87
2023/02/08 07:01:03;;;;;;;16.20;13.98;;;;;;;;;;5034356;28;20474;-85
2023/02/08 07:03:29;;;;;;;16.17;13.30;;;;;;;;;;5033078;28;20749;-86
2023/02/08 07:05:55;;;;;;;18.15;13.85;;;;;;;;;;5034555;28;20398;-85
2023/02/08 07:08:21;;;;;;;16.75;13.63;;;;;;;;;;5035310;28;20383;-85
2023/02/08 07:10:47;;;;;;;15.23;13.50;;;;;;;;;;5034919;28;20884;-86
2023/02/08 07:13:16;;;;;;;17.63;13.95;;;;;;;;;;5034363;28;20433;-85
2023/02/08 07:15:42;;;;;;;19.52;13.55;;;;;;;;;;5034269;28;20442;-85
2023/02/08 07:18:08;;;;;;;14.80;13.13;;;;;;;;;;5035166;28;20383;-86
2023/02/08 07:20:34;;;;;;;16.35;14.55;;;;;;;;;;5036047;28;20387;-85
2023/02/08 07:23:00;;;;;;;15.40;13.63;;;;;;;;;;5036105;28;20388;-87
2023/02/08 07:25:26;;;;;;;17.63;14.10;;;;;;;;;;5017804;28;20399;-85
2023/02/08 07:27:52;;;;;;;18.65;14.07;;;;;;;;;;5035480;28;20445;-85
2023/02/08 07:30:18;;;;;;;16.60;14.30;;;;;;;;;;5039303;28;20405;-85
2023/02/08 07:32:44;;;;;;;17.27;14.48;;;;;;;;;;5054318;28;20433;-87
2023/02/08 07:35:10;;;;;;;18.35;15.52;;;;;;;;;;5054910;28;20382;-88
2023/02/08 07:37:36;;;;;;;24.07;19.97;;;;;;;;;;5038985;28;20449;-87
2023/02/08 07:40:02;;;;;;;21.92;19.30;;;;;;;;;;5037279;28;20390;-85
2023/02/08 07:42:28;;;;;;;19.85;16.88;;;;;;;;;;5057383;28;20452;-89
2023/02/08 07:44:54;;;;;;;17.58;14.90;;;;;;;;;;5057019;28;20837;-84
2023/02/08 07:47:20;;;;;;;17.77;15.20;;;;;;;;;;5055954;28;20393;-85
2023/02/08 07:49:46;;;;;;;16.55;14.75;;;;;;;;;;5048059;28;20440;-83
2023/02/08 07:52:12;;;;;;;17.05;15.25;;;;;;;;;;5049521;28;20380;-84
2023/02/08 07:54:38;;;;;;;19.88;15.55;;;;;;;;;;5054294;28;20382;-85
2023/02/08 07:57:04;;;;;;;17.98;15.57;;;;;;;;;;5054070;28;20460;-84
2023/02/08 07:59:30;;;;;;;19.00;15.90;;;;;;;;;;5035674;28;20834;-84
2023/02/08 08:01:56;;;;;;;18.80;16.15;;;;;;;;;;5035641;28;20834;-85
2023/02/08 08:04:22;;;;;;;19.23;16.60;;;;;;;;;;5058383;28;20397;-84
2023/02/08 08:06:50;;;;;;;23.40;15.93;;;;;;;;;;5060876;28;20381;-84
2023/02/08 08:09:16;;;;;;;22.90;18.90;;;;;;;;;;5063131;28;20373;-84
2023/02/08 08:11:42;;;;;;;20.45;16.55;;;;;;;;;;5048717;28;20474;-83
2023/02/08 08:14:08;;;;;;;19.58;15.85;;;;;;;;;;5068563;28;20385;-83
2023/02/08 08:16:34;;;;;;;20.85;16.27;;;;;;;;;;5054986;28;20392;-84
2023/02/08 08:19:00;;;;;;;22.02;17.92;;;;;;;;;;5043329;28;20437;-85
2023/02/08 08:21:26;;;;;;;20.42;17.58;;;;;;;;;;5053564;28;20397;-85
2023/02/08 08:23:54;;;;;;;21.98;17.13;;;;;;;;;;5053152;28;20931;-84
2023/02/08 08:26:20;;;;;;;21.23;16.00;;;;;;;;;;5052739;28;20962;-85
2023/02/08 08:28:46;;;;;;;19.70;16.58;;;;;;;;;;5055425;28;20378;-85
2023/02/08 08:31:14;;;;;;;19.65;16.52;;;;;;;;;;5053031;28;20487;-86
2023/02/08 08:33:40;;;;;;;21.55;16.65;;;;;;;;;;5053517;28;20388;-87
2023/02/08 08:36:06;;;;;;;19.00;16.27;;;;;;;;;;5053678;28;20373;-86
2023/02/08 08:38:32;;;;;;;20.27;17.13;;;;;;;;;;5054609;28;20475;-85
2023/02/08 08:40:58;;;;;;;22.27;17.65;;;;;;;;;;5053852;28;20818;-86
2023/02/08 08:43:24;;;;;;;21.98;17.08;;;;;;;;;;5051874;28;20382;-86
2023/02/08 08:45:50;;;;;;;21.08;17.30;;;;;;;;;;5052200;28;20389;-85
2023/02/08 08:48:16;;;;;;;21.25;17.25;;;;;;;;;;5049914;28;20501;-86
2023/02/08 08:50:42;;;;;;;20.30;16.52;;;;;;;;;;5050811;28;20412;-86
2023/02/08 08:53:08;;;;;;;20.63;16.50;;;;;;;;;;5044837;28;20444;-91
2023/02/08 08:55:34;;;;;;;22.20;17.00;;;;;;;;;;5052475;28;20382;-88
2023/02/08 08:58:00;;;;;;;19.77;16.00;;;;;;;;;;5035008;28;20432;-91
2023/02/08 09:00:26;;;;;;;19.08;16.40;;;;;;;;;;5052998;28;20480;-86
2023/02/08 09:02:53;;;;;;;19.92;16.52;;;;;;;;;;5053894;28;20381;-88
2023/02/08 09:05:19;;;;;;;21.00;16.00;;;;;;;;;;5042596;28;20830;-87
2023/02/08 09:07:45;;;;;;;23.52;17.38;;;;;;;;;;5046337;28;20401;-87
2023/02/08 09:10:11;;;;;;;19.98;16.60;;;;;;;;;;5032838;28;20808;-87
2023/02/08 09:12:37;;;;;;;20.90;16.23;;;;;;;;;;5048550;28;20393;-88
2023/02/08 09:15:04;;;;;;;18.48;15.65;;;;;;;;;;5052708;28;20381;-88
2023/02/08 09:17:30;;;;;;;17.75;15.52;;;;;;;;;;5047492;28;20427;-89
2023/02/08 09:19:56;;;;;;;18.92;15.27;;;;;;;;;;5056345;28;20381;-88
2023/02/08 09:22:22;;;;;;;18.92;16.05;;;;;;;;;;5046278;28;20890;-87
2023/02/08 09:24:48;;;;;;;18.13;14.75;;;;;;;;;;5053388;28;20393;-88
2023/02/08 09:27:14;;;;;;;17.13;15.32;;;;;;;;;;5057044;28;20408;-90
2023/02/08 09:29:40;;;;;;;19.13;14.70;;;;;;;;;;5055930;28;20441;-88
2023/02/08 09:32:06;;;;;;;16.58;14.40;;;;;;;;;;5056578;28;20816;-89
2023/02/08 09:34:32;;;;;;;20.33;14.95;;;;;;;;;;5056694;28;20380;-88
2023/02/08 09:36:58;;;;;;;21.77;14.65;;;;;;;;;;5056703;28;20464;-89
2023/02/08 09:39:24;;;;;;;17.85;15.02;;;;;;;;;;5056558;28;20378;-89
2023/02/08 09:42:06;;;;;;;17.90;15.43;;;;;;;;;;5057154;28;20462;-89
2023/02/08 09:44:32;;;;;;;18.80;14.73;;;;;;;;;;5038692;28;20769;-91
2023/02/08 09:47:05;;;;;;;17.25;15.23;;;;;;;;;;5040224;28;20456;-90
2023/02/08 09:49:34;;;;;;;17.35;15.02;;;;;;;;;;5056126;28;20373;-88
2023/02/08 09:52:02;;;;;;;18.50;15.10;;;;;;;;;;5037200;28;20382;-88
2023/02/08 09:54:36;;;;;;;18.75;14.88;;;;;;;;;;5055577;28;20393;-89
2023/02/08 09:57:05;;;;;;;15.93;14.23;;;;;;;;;;5038939;28;20870;-88
2023/02/08 09:59:33;;;;;;;16.17;13.85;;;;;;;;;;5057989;28;20381;-89
2023/02/08 10:02:01;;;;;;;16.50;14.52;;;;;;;;;;5059122;28;20401;-88
2023/02/08 10:04:33;;;;;;;17.65;14.90;;;;;;;;;;5059040;28;20458;-91
2023/02/08 10:07:00;;;;;;;21.10;16.98;;;;;;;;;;5042845;28;20416;-91
2023/02/08 10:09:26;;;;;;;75.30;34.90;;;;;;;;;;5061748;28;20376;-91
2023/02/08 10:11:52;;;;;;;24.50;17.25;;;;;;;;;;5045511;28;20379;-90
2023/02/08 10:14:31;;;;;;;121.65;52.55;;;;;;;;;;5029410;28;20801;-91
2023/02/08 10:16:57;;;;;;;23.67;17.17;;;;;;;;;;5035426;28;20387;-89
2023/02/08 10:19:38;;;;;;;18.23;14.90;;;;;;;;;;5034003;28;20439;-92
2023/02/08 10:22:04;;;;;;;22.73;17.95;;;;;;;;;;5039481;28;20409;-91
2023/02/08 10:24:43;;;;;;;17.67;14.15;;;;;;;;;;5059210;28;20722;-90
2023/02/08 10:27:14;;;;;;;16.43;13.97;;;;;;;;;;5056149;28;20378;-91
2023/02/08 10:29:40;;;;;;;15.77;13.50;;;;;;;;;;5054141;28;20409;-90
2023/02/08 10:32:22;;;;;;;16.02;13.25;;;;;;;;;;5054320;28;20732;-89
2023/02/08 10:34:57;;;;;;;15.57;13.40;;;;;;;;;;5054749;28;20381;-91
2023/02/08 10:37:33;;;;;;;15.63;13.82;;;;;;;;;;5054399;28;20417;-90
2023/02/08 10:40:03;;;;;;;16.73;14.23;;;;;;;;;;5036562;28;20390;-91
2023/02/08 10:42:29;;;;;;;15.57;13.98;;;;;;;;;;5054489;28;20426;-90
2023/02/08 10:44:59;;;;;;;16.75;13.20;;;;;;;;;;5053926;28;20453;-90
2023/02/08 10:47:28;;;;;;;14.85;13.25;;;;;;;;;;5053857;28;20377;-90
2023/02/08 10:50:17;;;;;;;15.80;13.13;;;;;;;;;;5054343;28;20454;-90
2023/02/08 10:52:43;;;;;;;14.57;13.07;;;;;;;;;;5053740;28;20516;-92
2023/02/08 10:55:14;;;;;;;15.65;12.82;;;;;;;;;;5053612;28;20401;-90
2023/02/08 10:57:40;;;;;;;14.68;13.13;;;;;;;;;;5053538;28;20520;-91
2023/02/08 11:00:08;;;;;;;14.32;12.70;;;;;;;;;;5053296;28;20889;-91
2023/02/08 11:02:39;;;;;;;15.23;12.60;;;;;;;;;;5045643;28;20387;-90
2023/02/08 11:05:09;;;;;;;15.82;12.50;;;;;;;;;;5035511;28;20401;-89
2023/02/08 11:07:36;;;;;;;16.30;12.95;;;;;;;;;;5035570;28;20766;-89
2023/02/08 11:10:22;;;;;;;14.63;12.93;;;;;;;;;;5053663;28;20408;-91
2023/02/08 11:12:59;;;;;;;14.48;12.98;;;;;;;;;;5035764;28;20450;-92
2023/02/08 11:15:40;;;;;;;13.63;12.23;;;;;;;;;;5035736;28;20386;-91
2023/02/08 11:18:13;;;;;;;14.82;12.95;;;;;;;;;;5035423;28;20439;-90
2023/02/08 11:20:39;;;;;;;13.40;12.10;;;;;;;;;;5035336;28;20551;-91
2023/02/08 11:23:17;;;;;;;14.02;11.95;;;;;;;;;;5053446;28;20414;-91
2023/02/08 11:25:43;;;;;;;14.18;12.70;;;;;;;;;;5053868;28;20444;-91
2023/02/08 11:28:29;;;;;;;13.67;12.27;;;;;;;;;;5053280;28;20437;-91
2023/02/08 11:30:59;;;;;;;12.90;11.70;;;;;;;;;;5035015;28;20413;-91
2023/02/08 11:33:26;;;;;;;14.10;12.35;;;;;;;;;;5052745;28;20436;-90
2023/02/08 11:35:55;;;;;;;13.80;12.40;;;;;;;;;;5052091;28;20381;-91
2023/02/08 11:38:26;;;;;;;13.35;11.95;;;;;;;;;;5035286;28;20866;-90
2023/02/08 11:40:53;;;;;;;13.32;11.93;;;;;;;;;;5052918;28;20373;-92
2023/02/08 11:43:22;;;;;;;15.25;12.10;;;;;;;;;;5061055;28;20381;-91
2023/02/08 11:45:48;;;;;;;13.05;11.65;;;;;;;;;;5069631;28;20397;-90
2023/02/08 11:48:25;;;;;;;13.20;11.90;;;;;;;;;;5069638;28;20381;-91
2023/02/08 11:50:55;;;;;;;14.27;12.82;;;;;;;;;;5075142;28;20503;-90
2023/02/08 11:53:27;;;;;;;13.65;12.13;;;;;;;;;;5075781;28;20434;-92
2023/02/08 11:56:04;;;;;;;12.77;11.52;;;;;;;;;;5061937;28;20471;-92
2023/02/08 11:58:31;;;;;;;13.20;11.90;;;;;;;;;;5056688;28;20476;-91
2023/02/08 12:01:16;;;;;;;12.32;11.13;;;;;;;;;;5035908;28;20401;-91
2023/02/08 12:03:44;;;;;;;12.98;11.57;;;;;;;;;;5063409;28;21187;-90
2023/02/08 12:06:13;;;;;;;13.55;12.15;;;;;;;;;;5037123;28;20435;-91
2023/02/08 12:08:48;;;;;;;14.70;13.20;;;;;;;;;;5052224;28;20397;-91
2023/02/08 12:11:20;;;;;;;15.77;13.27;;;;;;;;;;5034332;28;20401;-91
2023/02/08 12:13:46;;;;;;;14.95;13.25;;;;;;;;;;5052533;28;20469;-90
2023/02/08 12:16:15;;;;;;;14.88;13.32;;;;;;;;;;5056287;28;20464;-90
2023/02/08 12:19:00;;;;;;;15.37;13.77;;;;;;;;;;5052342;28;20483;-90
2023/02/08 12:21:31;;;;;;;15.13;13.52;;;;;;;;;;5051668;28;20422;-92
2023/02/08 12:24:17;;;;;;;14.88;13.25;;;;;;;;;;5052496;28;20437;-91
2023/02/08 12:26:59;;;;;;;15.05;13.45;;;;;;;;;;5023305;28;20538;-92
2023/02/08 12:29:39;;;;;;;14.95;13.50;;;;;;;;;;5038882;28;20393;-93
2023/02/08 12:32:05;;;;;;;15.18;13.52;;;;;;;;;;5034521;28;20476;-90
2023/02/08 12:34:49;;;;;;;15.30;13.13;;;;;;;;;;5037271;28;20862;-90
2023/02/08 12:43:22;;;;;;;15.77;14.07;;;;;;;;;;5052569;28;20465;-92
2023/02/08 12:45:48;;;;;;;14.95;13.45;;;;;;;;;;5052632;28;20465;-91
2023/02/08 12:48:20;;;;;;;14.25;12.75;;;;;;;;;;5038979;28;20473;-89
2023/02/08 12:50:46;;;;;;;15.63;13.75;;;;;;;;;;5056492;28;20930;-89
2023/02/08 12:53:17;;;;;;;18.53;14.03;;;;;;;;;;5057157;28;20393;-88
2023/02/08 12:55:45;;;;;;;15.73;13.63;;;;;;;;;;5056531;28;20426;-90
2023/02/08 12:58:20;;;;;;;21.52;16.83;;;;;;;;;;5056629;28;20419;-91
2023/02/08 13:00:46;;;;;;;15.68;14.00;;;;;;;;;;5039307;28;20442;-90
2023/02/08 13:03:17;;;;;;;32.67;23.92;;;;;;;;;;5056566;28;20471;-91
2023/02/08 13:05:48;;;;;;;21.85;18.38;;;;;;;;;;5039056;28;20824;-91
2023/02/08 13:08:29;;;;;;;22.77;17.55;;;;;;;;;;5056770;28;20432;-91
2023/02/08 13:10:58;;;;;;;13.55;12.15;;;;;;;;;;5056529;28;20552;-91
2023/02/08 13:13:29;;;;;;;14.60;13.10;;;;;;;;;;5057218;28;20501;-89
2023/02/08 13:16:01;;;;;;;15.68;12.98;;;;;;;;;;5056869;28;20512;-91
2023/02/08 13:18:32;;;;;;;13.50;12.20;;;;;;;;;;5056682;28;20526;-89
2023/02/08 13:21:01;;;;;;;13.43;12.10;;;;;;;;;;5056014;28;20476;-90
2023/02/08 13:23:27;;;;;;;14.23;12.82;;;;;;;;;;5055979;28;20425;-89
2023/02/08 13:25:55;;;;;;;14.47;13.07;;;;;;;;;;5038819;28;20618;-91
2023/02/08 13:28:22;;;;;;;15.10;12.70;;;;;;;;;;5056310;28;20491;-89
2023/02/08 13:30:57;;;;;;;14.25;12.85;;;;;;;;;;5055765;28;20913;-89
2023/02/08 13:33:34;;;;;;;13.98;12.57;;;;;;;;;;5038285;28;20425;-90
2023/02/08 13:36:00;;;;;;;13.50;12.10;;;;;;;;;;5025793;28;20450;-90
2023/02/08 13:38:36;;;;;;;14.85;12.98;;;;;;;;;;5056555;28;20396;-90
2023/02/08 13:41:15;;;;;;;13.38;12.00;;;;;;;;;;5055272;28;20442;-90
2023/02/08 13:43:43;;;;;;;12.52;11.23;;;;;;;;;;5054803;28;20445;-90
2023/02/08 13:46:10;;;;;;;14.20;12.70;;;;;;;;;;5055856;28;20477;-90
2023/02/08 13:48:56;;;;;;;13.73;12.32;;;;;;;;;;5055975;28;20862;-89
2023/02/08 13:51:31;;;;;;;16.13;12.45;;;;;;;;;;5054867;28;20458;-88
2023/02/08 13:53:57;;;;;;;15.27;12.32;;;;;;;;;;5036811;28;20422;-90
2023/02/08 13:56:40;;;;;;;13.88;12.48;;;;;;;;;;5037017;28;20397;-89
2023/02/08 13:59:24;;;;;;;14.07;12.40;;;;;;;;;;5053720;28;20390;-90
2023/02/08 14:02:09;;;;;;;15.13;12.40;;;;;;;;;;5054552;28;20916;-89
2023/02/08 14:04:36;;;;;;;13.25;11.95;;;;;;;;;;5036952;28;20396;-89
2023/02/08 14:07:12;;;;;;;15.07;12.48;;;;;;;;;;5054847;28;20443;-90
2023/02/08 14:09:38;;;;;;;12.77;11.48;;;;;;;;;;5054810;28;20393;-90
2023/02/08 14:12:13;;;;;;;13.57;12.13;;;;;;;;;;5037177;28;20377;-89
2023/02/08 14:14:42;;;;;;;13.53;12.23;;;;;;;;;;5036605;28;20397;-89
2023/02/08 14:17:10;;;;;;;14.07;12.40;;;;;;;;;;5054503;28;20426;-90
2023/02/08 14:19:41;;;;;;;13.85;12.32;;;;;;;;;;5057951;28;20437;-90
2023/02/08 14:22:10;;;;;;;13.33;12.03;;;;;;;;;;5036848;28;20434;-89
2023/02/08 14:24:38;;;;;;;14.57;12.45;;;;;;;;;;5055988;28;20854;-89
2023/02/08 14:27:06;;;;;;;13.38;11.98;;;;;;;;;;5063790;28;20425;-90
2023/02/08 14:29:33;;;;;;;14.10;12.60;;;;;;;;;;5054120;28;20501;-90
2023/02/08 14:31:59;;;;;;;13.35;11.95;;;;;;;;;;5035548;28;20467;-89
2023/02/08 14:34:31;;;;;;;12.75;11.45;;;;;;;;;;5034975;28;20383;-89
2023/02/08 14:37:02;;;;;;;12.93;11.55;;;;;;;;;;5047718;28;20522;-90
2023/02/08 14:39:32;;;;;;;13.25;11.88;;;;;;;;;;5065591;28;20916;-89
2023/02/08 14:42:04;;;;;;;13.35;11.90;;;;;;;;;;5053693;28;20445;-89
2023/02/08 14:44:46;;;;;;;13.05;10.73;;;;;;;;;;5053756;28;20455;-90
2023/02/08 14:47:24;;;;;;;13.07;11.77;;;;;;;;;;5053555;28;20630;-89
2023/02/08 14:50:09;;;;;;;12.80;11.50;;;;;;;;;;5035452;28;20442;-90
2023/02/08 14:52:35;;;;;;;12.48;11.27;;;;;;;;;;5035964;28;20514;-89
2023/02/08 14:55:04;;;;;;;11.98;10.77;;;;;;;;;;5053698;28;20405;-89
2023/02/08 14:57:32;;;;;;;12.27;10.95;;;;;;;;;;5053490;28;20381;-90
2023/02/08 14:59:59;;;;;;;12.48;11.27;;;;;;;;;;5054344;28;20389;-90
2023/02/08 15:02:30;;;;;;;12.60;11.27;;;;;;;;;;5053643;28;20417;-89
2023/02/08 15:04:56;;;;;;;12.27;10.82;;;;;;;;;;5035769;28;20389;-89
2023/02/08 15:07:34;;;;;;;12.07;10.80;;;;;;;;;;5035931;28;20384;-89
2023/02/08 15:10:11;;;;;;;11.80;10.70;;;;;;;;;;5051992;28;20935;-88
2023/02/08 15:12:38;;;;;;;12.57;10.57;;;;;;;;;;5053401;28;20942;-92
2023/02/08 15:15:05;;;;;;;13.55;11.23;;;;;;;;;;5053071;28;20380;-90
2023/02/08 15:17:36;;;;;;;12.73;10.60;;;;;;;;;;5053158;28;20877;-90
2023/02/08 15:20:05;;;;;;;12.82;11.52;;;;;;;;;;5035134;28;20475;-89
2023/02/08 15:22:41;;;;;;;13.63;11.68;;;;;;;;;;5045725;28;20432;-89
2023/02/08 15:25:19;;;;;;;13.30;11.90;;;;;;;;;;5051236;28;20899;-89
2023/02/08 15:27:47;;;;;;;15.57;13.10;;;;;;;;;;5047252;28;20417;-89
2023/02/08 15:30:22;;;;;;;16.20;13.30;;;;;;;;;;5069122;28;20815;-89
2023/02/08 15:32:48;;;;;;;14.80;12.43;;;;;;;;;;5069695;28;20426;-88
2023/02/08 15:35:17;;;;;;;13.65;11.88;;;;;;;;;;5076434;28;20393;-91
2023/02/08 15:37:43;;;;;;;13.55;11.95;;;;;;;;;;5045936;28;20443;-92
2023/02/08 15:40:20;;;;;;;12.93;11.63;;;;;;;;;;5065875;28;20427;-93
2023/02/08 15:42:46;;;;;;;14.93;12.10;;;;;;;;;;5033738;28;21161;-93
2023/02/08 15:45:29;;;;;;;13.07;11.35;;;;;;;;;;5035519;28;20409;-91
2023/02/08 15:47:56;;;;;;;14.00;12.55;;;;;;;;;;5030549;28;20466;-93
2023/02/08 15:50:22;;;;;;;14.05;12.38;;;;;;;;;;5034630;28;20414;-93
2023/02/08 15:52:49;;;;;;;13.20;11.90;;;;;;;;;;5039650;28;20843;-92
2023/02/08 15:55:16;;;;;;;14.87;13.23;;;;;;;;;;5039704;28;20392;-90
2023/02/08 15:57:43;;;;;;;14.60;12.48;;;;;;;;;;5039711;28;20391;-91
2023/02/08 16:00:19;;;;;;;12.68;11.43;;;;;;;;;;5039774;28;20410;-92
2023/02/08 16:02:51;;;;;;;14.57;12.75;;;;;;;;;;5037831;28;20919;-92
2023/02/08 16:05:19;;;;;;;13.65;12.23;;;;;;;;;;5035678;28;20412;-89
2023/02/08 16:07:45;;;;;;;14.07;12.45;;;;;;;;;;5036428;28;20434;-91
2023/02/08 16:10:23;;;;;;;15.20;13.60;;;;;;;;;;5058164;28;20416;-92
2023/02/08 16:12:50;;;;;;;14.85;13.32;;;;;;;;;;5038488;28;20401;-91
2023/02/08 16:15:35;;;;;;;15.13;13.52;;;;;;;;;;5055045;28;20392;-89
2023/02/08 16:18:01;;;;;;;16.05;14.10;;;;;;;;;;5052973;28;20396;-87
2023/02/08 16:20:33;;;;;;;16.27;13.82;;;;;;;;;;5034294;28;20393;-90
2023/02/08 16:23:01;;;;;;;17.73;14.70;;;;;;;;;;5051366;28;20389;-88
2023/02/08 16:25:35;;;;;;;16.83;14.20;;;;;;;;;;5035032;28;20400;-89
2023/02/08 16:28:01;;;;;;;19.10;14.40;;;;;;;;;;5058077;28;20466;-92
2023/02/08 16:30:27;;;;;;;17.90;15.00;;;;;;;;;;5033014;28;20407;-91
2023/02/08 16:32:56;;;;;;;19.13;15.07;;;;;;;;;;5030984;28;20444;-91
2023/02/08 16:35:29;;;;;;;18.60;15.05;;;;;;;;;;5037691;28;20810;-92
2023/02/08 16:37:59;;;;;;;17.73;15.10;;;;;;;;;;5054594;28;20385;-89
2023/02/08 16:40:37;;;;;;;18.77;15.75;;;;;;;;;;5054971;28;20422;-89
2023/02/08 16:43:18;;;;;;;19.52;15.18;;;;;;;;;;5036646;28;20442;-90
2023/02/08 16:45:44;;;;;;;18.27;14.90;;;;;;;;;;5054839;28;20497;-90
2023/02/08 16:48:33;;;;;;;20.07;15.07;;;;;;;;;;5027450;28;20423;-87
2023/02/08 16:50:59;;;;;;;16.90;14.27;;;;;;;;;;5037849;28;20809;-90
2023/02/08 16:53:30;;;;;;;16.75;14.80;;;;;;;;;;5048882;28;20858;-89
2023/02/08 16:55:57;;;;;;;19.30;16.17;;;;;;;;;;5037933;28;20435;-88
2023/02/08 16:58:23;;;;;;;18.98;15.73;;;;;;;;;;5047265;28;20408;-88
2023/02/08 17:00:49;;;;;;;22.02;15.98;;;;;;;;;;5049506;28;20468;-90
2023/02/08 17:03:15;;;;;;;18.67;15.68;;;;;;;;;;5049901;28;20860;-89
2023/02/08 17:05:45;;;;;;;19.60;16.00;;;;;;;;;;5050518;28;20401;-90
2023/02/08 17:08:14;;;;;;;20.88;16.73;;;;;;;;;;5043882;28;20418;-89
2023/02/08 17:10:40;;;;;;;21.23;17.00;;;;;;;;;;5036585;28;20470;-90
2023/02/08 17:13:06;;;;;;;19.83;16.83;;;;;;;;;;5033364;28;20918;-89
2023/02/08 17:15:32;;;;;;;21.05;16.50;;;;;;;;;;5063819;28;20415;-88
2023/02/08 17:17:58;;;;;;;20.58;16.92;;;;;;;;;;5053990;28;20388;-87
2023/02/08 17:20:24;;;;;;;21.08;17.63;;;;;;;;;;5053144;28;20791;-88
2023/02/08 17:22:50;;;;;;;21.98;17.17;;;;;;;;;;5052372;28;20424;-87
2023/02/08 17:25:20;;;;;;;23.05;17.70;;;;;;;;;;5052233;28;20389;-87
2023/02/08 17:27:46;;;;;;;22.48;17.10;;;;;;;;;;5051916;28;20437;-87
2023/02/08 17:30:18;;;;;;;21.95;17.48;;;;;;;;;;5051990;28;20413;-87
2023/02/08 17:32:43;;;;;;;19.50;17.38;;;;;;;;;;5034342;28;20781;-88
2023/02/08 17:35:10;;;;;;;21.02;16.90;;;;;;;;;;5038752;28;20389;-88
2023/02/08 17:37:37;;;;;;;23.48;17.75;;;;;;;;;;5038864;28;20416;-88
2023/02/08 17:40:03;;;;;;;24.27;18.50;;;;;;;;;;5056086;28;20935;-87
2023/02/08 17:42:31;;;;;;;22.60;17.90;;;;;;;;;;5055343;28;20385;-88
2023/02/08 17:44:57;;;;;;;20.25;17.30;;;;;;;;;;5055423;28;20393;-87
2023/02/08 17:47:23;;;;;;;24.33;18.23;;;;;;;;;;5056714;28;20858;-90
2023/02/08 17:49:49;;;;;;;24.23;18.65;;;;;;;;;;5051388;28;20403;-90
2023/02/08 17:52:15;;;;;;;25.80;18.83;;;;;;;;;;5038134;28;20452;-90
2023/02/08 17:54:41;;;;;;;24.20;19.15;;;;;;;;;;5039272;28;20373;-88
2023/02/08 17:57:08;;;;;;;24.58;19.13;;;;;;;;;;5039146;28;20422;-90
2023/02/08 17:59:34;;;;;;;26.95;20.20;;;;;;;;;;5053570;28;20372;-89
2023/02/08 18:02:00;;;;;;;25.13;20.23;;;;;;;;;;5056232;28;20472;-89
2023/02/08 18:04:26;;;;;;;23.98;19.42;;;;;;;;;;5056396;28;20413;-89
2023/02/08 18:06:52;;;;;;;25.20;19.93;;;;;;;;;;5038979;28;20896;-87
2023/02/08 18:09:18;;;;;;;28.40;22.40;;;;;;;;;;5055702;28;20393;-88
2023/02/08 18:11:44;;;;;;;25.65;20.45;;;;;;;;;;5056181;28;20405;-88
2023/02/08 18:14:10;;;;;;;25.73;19.33;;;;;;;;;;5056303;28;20389;-89
2023/02/08 18:16:36;;;;;;;20.65;17.83;;;;;;;;;;5056826;28;20378;-89
2023/02/08 18:19:02;;;;;;;24.45;18.48;;;;;;;;;;5056693;28;20931;-90
2023/02/08 18:21:31;;;;;;;29.17;20.92;;;;;;;;;;5055400;28;20390;-91
2023/02/08 18:24:00;;;;;;;23.83;19.27;;;;;;;;;;5055865;28;20460;-88
2023/02/08 18:26:25;;;;;;;23.30;18.90;;;;;;;;;;5056724;28;20454;-90
2023/02/08 18:28:52;;;;;;;24.63;20.27;;;;;;;;;;5041630;28;20396;-92
2023/02/08 18:31:19;;;;;;;26.30;20.75;;;;;;;;;;5039187;28;20429;-90
2023/02/08 18:33:45;;;;;;;26.98;20.92;;;;;;;;;;5039275;28;20383;-88
2023/02/08 18:36:12;;;;;;;28.00;20.05;;;;;;;;;;5037265;28;20401;-89